sensor_id;sensor_type;location;lat;lon;timestamp;P1;durP1;ratioP1;P2;durP2;ratioP2
43817;SDS011;29868;47.360;18.984;2024-03-08T00:01:55;25.70;;;13.88;;
43817;SDS011;29868;47.360;18.984;2024-03-08T00:04:20;23.60;;;13.55;;
43817;SDS011;29868;47.360;18.984;2024-03-08T00:06:46;23.40;;;13.98;;
43817;SDS011;29868;47.360;18.984;2024-03-08T00:09:12;24.13;;;13.93;;
43817;SDS011;29868;47.360;18.984;2024-03-08T00:11:39;23.58;;;13.43;;
43817;SDS011;29868;47.360;18.984;2024-03-08T00:14:04;24.52;;;14.55;;
43817;SDS011;29868;47.360;18.984;2024-03-08T00:16:33;26.25;;;14.00;;
43817;SDS011;29868;47.360;18.984;2024-03-08T00:19:00;25.65;;;13.80;;
43817;SDS011;29868;47.360;18.984;2024-03-08T00:21:26;24.98;;;14.00;;
43817;SDS011;29868;47.360;18.984;2024-03-08T00:23:52;26.73;;;14.85;;
43817;SDS011;29868;47.360;18.984;2024-03-08T00:26:19;28.50;;;14.65;;
43817;SDS011;29868;47.360;18.984;2024-03-08T00:28:47;30.10;;;15.52;;
43817;SDS011;29868;47.360;18.984;2024-03-08T00:31:13;26.95;;;15.60;;
43817;SDS011;29868;47.360;18.984;2024-03-08T00:33:40;30.08;;;16.55;;
43817;SDS011;29868;47.360;18.984;2024-03-08T00:36:06;28.92;;;15.57;;
43817;SDS011;29868;47.360;18.984;2024-03-08T00:38:32;29.25;;;16.05;;
43817;SDS011;29868;47.360;18.984;2024-03-08T00:40:59;27.00;;;15.10;;
43817;SDS011;29868;47.360;18.984;2024-03-08T00:43:24;28.55;;;15.73;;
43817;SDS011;29868;47.360;18.984;2024-03-08T00:45:51;29.35;;;14.82;;
43817;SDS011;29868;47.360;18.984;2024-03-08T00:48:16;29.75;;;15.63;;
43817;SDS011;29868;47.360;18.984;2024-03-08T00:50:42;29.80;;;16.90;;
43817;SDS011;29868;47.360;18.984;2024-03-08T00:53:10;27.30;;;14.98;;
43817;SDS011;29868;47.360;18.984;2024-03-08T00:55:36;32.58;;;15.23;;
43817;SDS011;29868;47.360;18.984;2024-03-08T00:58:03;27.17;;;14.90;;
43817;SDS011;29868;47.360;18.984;2024-03-08T01:00:29;30.23;;;15.50;;
43817;SDS011;29868;47.360;18.984;2024-03-08T01:02:54;25.85;;;14.85;;
43817;SDS011;29868;47.360;18.984;2024-03-08T01:05:19;28.13;;;15.85;;
43817;SDS011;29868;47.360;18.984;2024-03-08T01:07:45;29.77;;;15.20;;
43817;SDS011;29868;47.360;18.984;2024-03-08T01:10:11;28.17;;;15.35;;
43817;SDS011;29868;47.360;18.984;2024-03-08T01:12:37;30.13;;;16.08;;
43817;SDS011;29868;47.360;18.984;2024-03-08T01:15:04;28.58;;;15.85;;
43817;SDS011;29868;47.360;18.984;2024-03-08T01:17:29;32.90;;;16.73;;
43817;SDS011;29868;47.360;18.984;2024-03-08T01:19:56;27.20;;;15.45;;
43817;SDS011;29868;47.360;18.984;2024-03-08T01:22:21;29.73;;;16.60;;
43817;SDS011;29868;47.360;18.984;2024-03-08T01:24:47;30.77;;;16.15;;
43817;SDS011;29868;47.360;18.984;2024-03-08T01:27:13;35.50;;;17.35;;
43817;SDS011;29868;47.360;18.984;2024-03-08T01:29:39;29.02;;;16.50;;
43817;SDS011;29868;47.360;18.984;2024-03-08T01:32:05;30.27;;;16.77;;
43817;SDS011;29868;47.360;18.984;2024-03-08T01:34:31;31.13;;;17.10;;
43817;SDS011;29868;47.360;18.984;2024-03-08T01:36:58;30.45;;;16.30;;
43817;SDS011;29868;47.360;18.984;2024-03-08T01:39:24;29.63;;;16.52;;
43817;SDS011;29868;47.360;18.984;2024-03-08T01:41:49;32.38;;;17.05;;
43817;SDS011;29868;47.360;18.984;2024-03-08T01:44:14;28.77;;;16.38;;
43817;SDS011;29868;47.360;18.984;2024-03-08T01:46:43;31.38;;;16.52;;
43817;SDS011;29868;47.360;18.984;2024-03-08T01:49:10;33.10;;;17.63;;
43817;SDS011;29868;47.360;18.984;2024-03-08T01:51:37;32.05;;;16.80;;
43817;SDS011;29868;47.360;18.984;2024-03-08T01:54:05;31.35;;;17.42;;
43817;SDS011;29868;47.360;18.984;2024-03-08T01:56:31;33.17;;;16.58;;
43817;SDS011;29868;47.360;18.984;2024-03-08T01:58:57;30.88;;;16.55;;
43817;SDS011;29868;47.360;18.984;2024-03-08T02:01:24;34.63;;;17.58;;
43817;SDS011;29868;47.360;18.984;2024-03-08T02:03:50;31.50;;;16.90;;
43817;SDS011;29868;47.360;18.984;2024-03-08T02:06:15;34.60;;;18.27;;
43817;SDS011;29868;47.360;18.984;2024-03-08T02:08:42;33.35;;;17.88;;
43817;SDS011;29868;47.360;18.984;2024-03-08T02:11:10;31.92;;;17.30;;
43817;SDS011;29868;47.360;18.984;2024-03-08T02:13:35;31.60;;;17.20;;
43817;SDS011;29868;47.360;18.984;2024-03-08T02:16:01;32.60;;;18.00;;
43817;SDS011;29868;47.360;18.984;2024-03-08T02:18:27;33.42;;;18.10;;
43817;SDS011;29868;47.360;18.984;2024-03-08T02:20:54;35.80;;;18.42;;
43817;SDS011;29868;47.360;18.984;2024-03-08T02:23:23;33.47;;;18.00;;
43817;SDS011;29868;47.360;18.984;2024-03-08T02:25:52;38.92;;;19.88;;
43817;SDS011;29868;47.360;18.984;2024-03-08T02:28:19;34.78;;;19.15;;
43817;SDS011;29868;47.360;18.984;2024-03-08T02:30:45;36.15;;;19.67;;
43817;SDS011;29868;47.360;18.984;2024-03-08T02:33:17;38.58;;;19.85;;
43817;SDS011;29868;47.360;18.984;2024-03-08T02:35:46;41.97;;;21.58;;
43817;SDS011;29868;47.360;18.984;2024-03-08T02:38:13;40.67;;;20.17;;
43817;SDS011;29868;47.360;18.984;2024-03-08T02:40:43;38.28;;;20.52;;
43817;SDS011;29868;47.360;18.984;2024-03-08T02:43:10;44.00;;;21.67;;
43817;SDS011;29868;47.360;18.984;2024-03-08T02:45:36;42.15;;;20.52;;
43817;SDS011;29868;47.360;18.984;2024-03-08T02:48:02;44.55;;;21.73;;
43817;SDS011;29868;47.360;18.984;2024-03-08T02:50:28;42.15;;;21.10;;
43817;SDS011;29868;47.360;18.984;2024-03-08T02:52:53;41.42;;;21.65;;
43817;SDS011;29868;47.360;18.984;2024-03-08T02:55:19;43.83;;;22.02;;
43817;SDS011;29868;47.360;18.984;2024-03-08T02:57:45;41.45;;;21.48;;
43817;SDS011;29868;47.360;18.984;2024-03-08T03:00:12;43.83;;;21.95;;
43817;SDS011;29868;47.360;18.984;2024-03-08T03:02:38;43.10;;;22.20;;
43817;SDS011;29868;47.360;18.984;2024-03-08T03:05:04;43.25;;;22.25;;
43817;SDS011;29868;47.360;18.984;2024-03-08T03:07:34;48.20;;;23.05;;
43817;SDS011;29868;47.360;18.984;2024-03-08T03:09:59;41.58;;;21.63;;
43817;SDS011;29868;47.360;18.984;2024-03-08T03:12:28;43.30;;;22.00;;
43817;SDS011;29868;47.360;18.984;2024-03-08T03:14:55;47.25;;;22.15;;
43817;SDS011;29868;47.360;18.984;2024-03-08T03:17:22;47.28;;;22.75;;
43817;SDS011;29868;47.360;18.984;2024-03-08T03:19:48;45.45;;;22.70;;
43817;SDS011;29868;47.360;18.984;2024-03-08T03:22:13;44.85;;;21.88;;
43817;SDS011;29868;47.360;18.984;2024-03-08T03:24:40;46.65;;;22.50;;
43817;SDS011;29868;47.360;18.984;2024-03-08T03:27:07;46.30;;;22.77;;
43817;SDS011;29868;47.360;18.984;2024-03-08T03:29:42;45.90;;;22.80;;
43817;SDS011;29868;47.360;18.984;2024-03-08T03:32:13;44.33;;;21.73;;
43817;SDS011;29868;47.360;18.984;2024-03-08T03:34:41;49.17;;;23.30;;
43817;SDS011;29868;47.360;18.984;2024-03-08T03:37:09;44.10;;;21.52;;
43817;SDS011;29868;47.360;18.984;2024-03-08T03:39:37;47.22;;;22.80;;
43817;SDS011;29868;47.360;18.984;2024-03-08T03:42:18;44.53;;;22.92;;
43817;SDS011;29868;47.360;18.984;2024-03-08T03:44:47;43.58;;;21.10;;
43817;SDS011;29868;47.360;18.984;2024-03-08T03:47:16;41.35;;;21.05;;
43817;SDS011;29868;47.360;18.984;2024-03-08T03:49:42;43.53;;;22.02;;
43817;SDS011;29868;47.360;18.984;2024-03-08T03:52:07;48.83;;;22.45;;
43817;SDS011;29868;47.360;18.984;2024-03-08T03:54:33;49.10;;;21.42;;
43817;SDS011;29868;47.360;18.984;2024-03-08T03:56:59;43.60;;;21.77;;
43817;SDS011;29868;47.360;18.984;2024-03-08T03:59:25;42.92;;;22.00;;
43817;SDS011;29868;47.360;18.984;2024-03-08T04:01:51;43.13;;;21.35;;
43817;SDS011;29868;47.360;18.984;2024-03-08T04:04:16;47.20;;;23.10;;
43817;SDS011;29868;47.360;18.984;2024-03-08T04:06:41;45.55;;;22.70;;
43817;SDS011;29868;47.360;18.984;2024-03-08T04:09:07;47.40;;;23.27;;
43817;SDS011;29868;47.360;18.984;2024-03-08T04:11:33;46.88;;;22.75;;
43817;SDS011;29868;47.360;18.984;2024-03-08T04:13:58;49.30;;;21.95;;
43817;SDS011;29868;47.360;18.984;2024-03-08T04:16:24;46.10;;;22.13;;
43817;SDS011;29868;47.360;18.984;2024-03-08T04:18:51;46.72;;;22.30;;
43817;SDS011;29868;47.360;18.984;2024-03-08T12:19:33;20.88;;;14.98;;
43817;SDS011;29868;47.360;18.984;2024-03-08T12:22:06;22.08;;;16.10;;
43817;SDS011;29868;47.360;18.984;2024-03-08T12:24:34;21.35;;;15.88;;
43817;SDS011;29868;47.360;18.984;2024-03-08T12:27:02;23.38;;;16.08;;
43817;SDS011;29868;47.360;18.984;2024-03-08T12:29:42;24.58;;;17.85;;
43817;SDS011;29868;47.360;18.984;2024-03-08T12:32:08;24.40;;;18.40;;
43817;SDS011;29868;47.360;18.984;2024-03-08T12:34:36;23.77;;;17.33;;
43817;SDS011;29868;47.360;18.984;2024-03-08T12:37:02;21.77;;;16.90;;
43817;SDS011;29868;47.360;18.984;2024-03-08T12:39:27;20.63;;;15.23;;
43817;SDS011;29868;47.360;18.984;2024-03-08T12:41:55;22.88;;;16.20;;
43817;SDS011;29868;47.360;18.984;2024-03-08T12:44:22;21.05;;;16.38;;
43817;SDS011;29868;47.360;18.984;2024-03-08T12:46:48;18.90;;;14.27;;
43817;SDS011;29868;47.360;18.984;2024-03-08T12:49:14;17.60;;;14.40;;
43817;SDS011;29868;47.360;18.984;2024-03-08T12:51:45;18.58;;;14.25;;
43817;SDS011;29868;47.360;18.984;2024-03-08T12:54:11;18.73;;;14.02;;
43817;SDS011;29868;47.360;18.984;2024-03-08T12:56:37;16.67;;;13.60;;
43817;SDS011;29868;47.360;18.984;2024-03-08T12:59:06;17.35;;;13.02;;
43817;SDS011;29868;47.360;18.984;2024-03-08T13:01:33;18.58;;;12.65;;
43817;SDS011;29868;47.360;18.984;2024-03-08T13:03:59;18.40;;;12.88;;
43817;SDS011;29868;47.360;18.984;2024-03-08T13:06:27;17.27;;;12.40;;
43817;SDS011;29868;47.360;18.984;2024-03-08T13:08:54;17.40;;;12.68;;
43817;SDS011;29868;47.360;18.984;2024-03-08T13:11:20;16.15;;;11.93;;
43817;SDS011;29868;47.360;18.984;2024-03-08T13:13:49;15.95;;;11.88;;
43817;SDS011;29868;47.360;18.984;2024-03-08T13:16:16;17.27;;;12.57;;
43817;SDS011;29868;47.360;18.984;2024-03-08T13:18:44;15.55;;;11.43;;
43817;SDS011;29868;47.360;18.984;2024-03-08T13:21:14;15.38;;;11.68;;
43817;SDS011;29868;47.360;18.984;2024-03-08T13:23:43;16.25;;;12.25;;
43817;SDS011;29868;47.360;18.984;2024-03-08T13:26:15;16.48;;;12.02;;
43817;SDS011;29868;47.360;18.984;2024-03-08T13:28:50;15.48;;;11.65;;
43817;SDS011;29868;47.360;18.984;2024-03-08T13:31:19;16.98;;;11.88;;
43817;SDS011;29868;47.360;18.984;2024-03-08T13:33:45;17.55;;;12.38;;
43817;SDS011;29868;47.360;18.984;2024-03-08T13:36:12;16.90;;;11.70;;
43817;SDS011;29868;47.360;18.984;2024-03-08T13:38:44;16.40;;;12.23;;
43817;SDS011;29868;47.360;18.984;2024-03-08T13:41:11;17.15;;;12.25;;
43817;SDS011;29868;47.360;18.984;2024-03-08T13:43:40;18.05;;;12.57;;
43817;SDS011;29868;47.360;18.984;2024-03-08T13:46:06;17.15;;;12.05;;
43817;SDS011;29868;47.360;18.984;2024-03-08T13:48:32;16.23;;;12.75;;
43817;SDS011;29868;47.360;18.984;2024-03-08T13:51:00;17.83;;;12.75;;
43817;SDS011;29868;47.360;18.984;2024-03-08T13:53:29;18.00;;;12.65;;
43817;SDS011;29868;47.360;18.984;2024-03-08T13:55:57;17.73;;;12.15;;
43817;SDS011;29868;47.360;18.984;2024-03-08T13:58:43;16.45;;;12.07;;
43817;SDS011;29868;47.360;18.984;2024-03-08T14:01:09;17.95;;;12.50;;
43817;SDS011;29868;47.360;18.984;2024-03-08T14:03:36;18.00;;;11.70;;
43817;SDS011;29868;47.360;18.984;2024-03-08T14:06:02;18.73;;;12.43;;
43817;SDS011;29868;47.360;18.984;2024-03-08T14:08:28;18.02;;;11.95;;
43817;SDS011;29868;47.360;18.984;2024-03-08T14:10:54;17.70;;;11.57;;
43817;SDS011;29868;47.360;18.984;2024-03-08T14:13:20;16.92;;;12.07;;
43817;SDS011;29868;47.360;18.984;2024-03-08T14:15:46;16.85;;;11.90;;
43817;SDS011;29868;47.360;18.984;2024-03-08T14:18:11;18.55;;;12.50;;
43817;SDS011;29868;47.360;18.984;2024-03-08T14:20:38;25.20;;;13.57;;
43817;SDS011;29868;47.360;18.984;2024-03-08T14:23:04;23.98;;;14.02;;
43817;SDS011;29868;47.360;18.984;2024-03-08T14:25:31;24.70;;;14.90;;
43817;SDS011;29868;47.360;18.984;2024-03-08T14:27:56;24.70;;;15.85;;
43817;SDS011;29868;47.360;18.984;2024-03-08T14:32:58;21.95;;;15.32;;
43817;SDS011;29868;47.360;18.984;2024-03-08T14:35:25;22.77;;;15.18;;
43817;SDS011;29868;47.360;18.984;2024-03-08T14:37:50;24.20;;;14.68;;
43817;SDS011;29868;47.360;18.984;2024-03-08T14:40:18;20.88;;;14.75;;
43817;SDS011;29868;47.360;18.984;2024-03-08T14:42:47;22.23;;;13.95;;
43817;SDS011;29868;47.360;18.984;2024-03-08T14:45:14;22.55;;;14.60;;
43817;SDS011;29868;47.360;18.984;2024-03-08T14:47:40;22.48;;;14.57;;
43817;SDS011;29868;47.360;18.984;2024-03-08T14:50:06;23.63;;;14.45;;
43817;SDS011;29868;47.360;18.984;2024-03-08T14:52:32;23.90;;;15.13;;
43817;SDS011;29868;47.360;18.984;2024-03-08T14:54:57;23.77;;;15.43;;
43817;SDS011;29868;47.360;18.984;2024-03-08T14:57:23;28.70;;;16.60;;
43817;SDS011;29868;47.360;18.984;2024-03-08T14:59:49;28.45;;;17.48;;
43817;SDS011;29868;47.360;18.984;2024-03-08T15:02:15;32.42;;;19.75;;
43817;SDS011;29868;47.360;18.984;2024-03-08T15:04:42;34.58;;;20.95;;
43817;SDS011;29868;47.360;18.984;2024-03-08T15:07:21;60.33;;;27.08;;
43817;SDS011;29868;47.360;18.984;2024-03-08T15:09:47;45.45;;;23.77;;
43817;SDS011;29868;47.360;18.984;2024-03-08T15:12:13;36.35;;;22.58;;
43817;SDS011;29868;47.360;18.984;2024-03-08T15:14:40;29.80;;;19.13;;
43817;SDS011;29868;47.360;18.984;2024-03-08T15:17:08;25.50;;;16.10;;
43817;SDS011;29868;47.360;18.984;2024-03-08T15:19:38;24.17;;;16.42;;
43817;SDS011;29868;47.360;18.984;2024-03-08T15:22:03;23.58;;;15.63;;
43817;SDS011;29868;47.360;18.984;2024-03-08T15:24:29;24.45;;;16.77;;
43817;SDS011;29868;47.360;18.984;2024-03-08T15:26:54;37.65;;;22.48;;
43817;SDS011;29868;47.360;18.984;2024-03-08T15:29:20;40.95;;;24.35;;
43817;SDS011;29868;47.360;18.984;2024-03-08T15:31:51;31.98;;;20.00;;
43817;SDS011;29868;47.360;18.984;2024-03-08T15:34:19;32.90;;;20.45;;
43817;SDS011;29868;47.360;18.984;2024-03-08T15:36:48;33.58;;;20.70;;
43817;SDS011;29868;47.360;18.984;2024-03-08T15:39:16;36.78;;;22.80;;
43817;SDS011;29868;47.360;18.984;2024-03-08T15:41:42;33.10;;;21.17;;
43817;SDS011;29868;47.360;18.984;2024-03-08T15:44:09;26.25;;;16.60;;
43817;SDS011;29868;47.360;18.984;2024-03-08T15:46:37;25.77;;;16.35;;
43817;SDS011;29868;47.360;18.984;2024-03-08T15:49:04;26.40;;;16.17;;
43817;SDS011;29868;47.360;18.984;2024-03-08T15:51:30;25.02;;;16.42;;
43817;SDS011;29868;47.360;18.984;2024-03-08T15:53:57;29.48;;;19.67;;
43817;SDS011;29868;47.360;18.984;2024-03-08T15:56:23;28.80;;;18.50;;
43817;SDS011;29868;47.360;18.984;2024-03-08T15:58:49;29.10;;;18.70;;
43817;SDS011;29868;47.360;18.984;2024-03-08T16:01:16;29.25;;;17.58;;
43817;SDS011;29868;47.360;18.984;2024-03-08T16:03:42;28.35;;;19.40;;
43817;SDS011;29868;47.360;18.984;2024-03-08T16:06:10;25.38;;;16.83;;
43817;SDS011;29868;47.360;18.984;2024-03-08T16:08:36;26.40;;;16.50;;
43817;SDS011;29868;47.360;18.984;2024-03-08T16:11:04;24.50;;;16.35;;
43817;SDS011;29868;47.360;18.984;2024-03-08T16:13:33;26.48;;;17.20;;
43817;SDS011;29868;47.360;18.984;2024-03-08T16:16:06;23.85;;;15.70;;
43817;SDS011;29868;47.360;18.984;2024-03-08T16:18:31;26.33;;;16.80;;
43817;SDS011;29868;47.360;18.984;2024-03-08T16:21:00;26.80;;;16.90;;
43817;SDS011;29868;47.360;18.984;2024-03-08T16:23:28;27.05;;;17.52;;
43817;SDS011;29868;47.360;18.984;2024-03-08T16:25:53;27.27;;;17.73;;
43817;SDS011;29868;47.360;18.984;2024-03-08T16:28:18;42.95;;;25.77;;
43817;SDS011;29868;47.360;18.984;2024-03-08T16:30:48;30.20;;;19.58;;
43817;SDS011;29868;47.360;18.984;2024-03-08T16:33:14;26.77;;;16.30;;
43817;SDS011;29868;47.360;18.984;2024-03-08T16:35:41;26.45;;;18.08;;
43817;SDS011;29868;47.360;18.984;2024-03-08T16:38:13;32.67;;;19.00;;
43817;SDS011;29868;47.360;18.984;2024-03-08T16:40:40;28.60;;;18.65;;
43817;SDS011;29868;47.360;18.984;2024-03-08T16:43:05;29.67;;;18.35;;
43817;SDS011;29868;47.360;18.984;2024-03-08T16:45:36;30.45;;;18.75;;
43817;SDS011;29868;47.360;18.984;2024-03-08T16:48:02;30.60;;;19.17;;
43817;SDS011;29868;47.360;18.984;2024-03-08T16:50:28;34.53;;;20.38;;
43817;SDS011;29868;47.360;18.984;2024-03-08T16:52:56;34.33;;;19.77;;
43817;SDS011;29868;47.360;18.984;2024-03-08T16:55:22;35.17;;;21.33;;
43817;SDS011;29868;47.360;18.984;2024-03-08T16:57:48;40.15;;;21.92;;
43817;SDS011;29868;47.360;18.984;2024-03-08T17:00:15;37.88;;;21.90;;
43817;SDS011;29868;47.360;18.984;2024-03-08T17:02:56;38.90;;;22.05;;
43817;SDS011;29868;47.360;18.984;2024-03-08T17:05:25;35.28;;;21.63;;
43817;SDS011;29868;47.360;18.984;2024-03-08T17:07:56;38.45;;;23.35;;
43817;SDS011;29868;47.360;18.984;2024-03-08T17:10:29;42.75;;;24.05;;
43817;SDS011;29868;47.360;18.984;2024-03-08T17:12:55;55.78;;;28.08;;
43817;SDS011;29868;47.360;18.984;2024-03-08T17:15:25;56.25;;;30.77;;
43817;SDS011;29868;47.360;18.984;2024-03-08T17:17:57;58.05;;;30.30;;
43817;SDS011;29868;47.360;18.984;2024-03-08T17:20:34;45.90;;;25.65;;
43817;SDS011;29868;47.360;18.984;2024-03-08T17:23:04;40.63;;;23.98;;
43817;SDS011;29868;47.360;18.984;2024-03-08T17:25:33;38.95;;;23.25;;
43817;SDS011;29868;47.360;18.984;2024-03-08T17:28:00;43.15;;;25.45;;
43817;SDS011;29868;47.360;18.984;2024-03-08T17:30:31;41.38;;;22.90;;
43817;SDS011;29868;47.360;18.984;2024-03-08T17:33:01;39.75;;;21.63;;
43817;SDS011;29868;47.360;18.984;2024-03-08T17:35:35;38.92;;;21.48;;
43817;SDS011;29868;47.360;18.984;2024-03-08T17:38:03;40.13;;;21.27;;
43817;SDS011;29868;47.360;18.984;2024-03-08T17:40:36;38.78;;;23.17;;
43817;SDS011;29868;47.360;18.984;2024-03-08T17:43:03;39.22;;;23.70;;
43817;SDS011;29868;47.360;18.984;2024-03-08T17:45:32;38.67;;;21.33;;
43817;SDS011;29868;47.360;18.984;2024-03-08T17:48:00;37.13;;;21.58;;
43817;SDS011;29868;47.360;18.984;2024-03-08T17:50:26;39.72;;;22.52;;
43817;SDS011;29868;47.360;18.984;2024-03-08T17:52:53;43.45;;;24.02;;
43817;SDS011;29868;47.360;18.984;2024-03-08T17:55:19;44.10;;;24.98;;
43817;SDS011;29868;47.360;18.984;2024-03-08T17:57:46;41.08;;;23.80;;
43817;SDS011;29868;47.360;18.984;2024-03-08T18:00:13;56.63;;;31.05;;
43817;SDS011;29868;47.360;18.984;2024-03-08T18:02:48;69.03;;;37.88;;
43817;SDS011;29868;47.360;18.984;2024-03-08T18:05:19;77.13;;;41.10;;
43817;SDS011;29868;47.360;18.984;2024-03-08T18:07:50;42.40;;;24.17;;
43817;SDS011;29868;47.360;18.984;2024-03-08T18:10:16;41.35;;;22.65;;
43817;SDS011;29868;47.360;18.984;2024-03-08T18:12:52;42.35;;;23.52;;
43817;SDS011;29868;47.360;18.984;2024-03-08T18:15:23;44.40;;;24.35;;
43817;SDS011;29868;47.360;18.984;2024-03-08T18:17:53;43.13;;;24.00;;
43817;SDS011;29868;47.360;18.984;2024-03-08T18:20:27;44.55;;;24.13;;
43817;SDS011;29868;47.360;18.984;2024-03-08T18:23:01;41.97;;;24.17;;
43817;SDS011;29868;47.360;18.984;2024-03-08T18:25:28;42.80;;;24.40;;
43817;SDS011;29868;47.360;18.984;2024-03-08T18:27:55;42.55;;;23.40;;
43817;SDS011;29868;47.360;18.984;2024-03-08T18:30:24;41.30;;;23.42;;
43817;SDS011;29868;47.360;18.984;2024-03-08T18:32:50;42.13;;;23.25;;
43817;SDS011;29868;47.360;18.984;2024-03-08T18:35:19;42.33;;;23.83;;
43817;SDS011;29868;47.360;18.984;2024-03-08T18:37:46;44.03;;;24.30;;
43817;SDS011;29868;47.360;18.984;2024-03-08T18:40:14;45.65;;;24.85;;
43817;SDS011;29868;47.360;18.984;2024-03-08T18:42:42;45.85;;;24.63;;
43817;SDS011;29868;47.360;18.984;2024-03-08T18:45:12;46.67;;;24.92;;
43817;SDS011;29868;47.360;18.984;2024-03-08T18:47:49;49.88;;;26.08;;
43817;SDS011;29868;47.360;18.984;2024-03-08T18:50:17;46.80;;;24.90;;
43817;SDS011;29868;47.360;18.984;2024-03-08T18:52:45;54.85;;;26.85;;
43817;SDS011;29868;47.360;18.984;2024-03-08T18:55:12;52.15;;;29.13;;
43817;SDS011;29868;47.360;18.984;2024-03-08T18:57:44;55.85;;;27.75;;
43817;SDS011;29868;47.360;18.984;2024-03-08T19:00:16;47.72;;;25.73;;
43817;SDS011;29868;47.360;18.984;2024-03-08T19:02:55;71.15;;;36.72;;
43817;SDS011;29868;47.360;18.984;2024-03-08T19:05:22;70.18;;;38.03;;
43817;SDS011;29868;47.360;18.984;2024-03-08T19:07:49;57.95;;;29.52;;
43817;SDS011;29868;47.360;18.984;2024-03-08T19:10:17;55.97;;;28.77;;
43817;SDS011;29868;47.360;18.984;2024-03-08T19:12:51;57.97;;;29.55;;
43817;SDS011;29868;47.360;18.984;2024-03-08T19:15:31;53.60;;;27.63;;
43817;SDS011;29868;47.360;18.984;2024-03-08T19:18:00;54.17;;;27.67;;
43817;SDS011;29868;47.360;18.984;2024-03-08T19:20:27;60.13;;;29.95;;
43817;SDS011;29868;47.360;18.984;2024-03-08T19:22:55;62.45;;;32.80;;
43817;SDS011;29868;47.360;18.984;2024-03-08T19:25:26;68.78;;;33.50;;
43817;SDS011;29868;47.360;18.984;2024-03-08T19:28:00;75.32;;;36.50;;
43817;SDS011;29868;47.360;18.984;2024-03-08T19:30:29;86.50;;;40.83;;
43817;SDS011;29868;47.360;18.984;2024-03-08T19:33:01;86.28;;;41.70;;
43817;SDS011;29868;47.360;18.984;2024-03-08T19:35:28;88.40;;;42.50;;
43817;SDS011;29868;47.360;18.984;2024-03-08T19:37:55;83.07;;;37.92;;
43817;SDS011;29868;47.360;18.984;2024-03-08T19:40:22;78.97;;;38.53;;
43817;SDS011;29868;47.360;18.984;2024-03-08T19:42:56;82.97;;;40.92;;
43817;SDS011;29868;47.360;18.984;2024-03-08T19:45:22;83.82;;;39.13;;
43817;SDS011;29868;47.360;18.984;2024-03-08T19:47:52;81.00;;;38.08;;
43817;SDS011;29868;47.360;18.984;2024-03-08T19:50:26;77.55;;;36.92;;
43817;SDS011;29868;47.360;18.984;2024-03-08T19:52:53;65.95;;;32.42;;
43817;SDS011;29868;47.360;18.984;2024-03-08T19:55:21;59.75;;;30.02;;
43817;SDS011;29868;47.360;18.984;2024-03-08T19:57:48;60.92;;;29.30;;
43817;SDS011;29868;47.360;18.984;2024-03-08T20:00:16;60.88;;;29.70;;
43817;SDS011;29868;47.360;18.984;2024-03-08T20:02:46;58.47;;;29.52;;
43817;SDS011;29868;47.360;18.984;2024-03-08T20:05:14;63.47;;;29.35;;
43817;SDS011;29868;47.360;18.984;2024-03-08T20:07:41;64.50;;;31.08;;
43817;SDS011;29868;47.360;18.984;2024-03-08T20:10:11;64.15;;;30.33;;
43817;SDS011;29868;47.360;18.984;2024-03-08T20:12:39;66.05;;;29.98;;
43817;SDS011;29868;47.360;18.984;2024-03-08T20:15:07;64.60;;;30.05;;
43817;SDS011;29868;47.360;18.984;2024-03-08T20:17:38;66.35;;;30.50;;
43817;SDS011;29868;47.360;18.984;2024-03-08T20:20:05;66.85;;;31.60;;
43817;SDS011;29868;47.360;18.984;2024-03-08T20:22:32;63.67;;;30.02;;
43817;SDS011;29868;47.360;18.984;2024-03-08T20:24:57;64.13;;;31.15;;
43817;SDS011;29868;47.360;18.984;2024-03-08T20:27:26;60.97;;;31.08;;
43817;SDS011;29868;47.360;18.984;2024-03-08T20:29:53;68.13;;;35.63;;
43817;SDS011;29868;47.360;18.984;2024-03-08T20:32:19;68.50;;;33.38;;
43817;SDS011;29868;47.360;18.984;2024-03-08T20:34:45;76.90;;;40.50;;
43817;SDS011;29868;47.360;18.984;2024-03-08T20:37:11;96.03;;;53.95;;
43817;SDS011;29868;47.360;18.984;2024-03-08T20:39:38;80.25;;;42.80;;
43817;SDS011;29868;47.360;18.984;2024-03-08T20:42:04;72.55;;;35.97;;
43817;SDS011;29868;47.360;18.984;2024-03-08T20:44:30;74.13;;;37.83;;
43817;SDS011;29868;47.360;18.984;2024-03-08T20:46:56;66.40;;;33.90;;
43817;SDS011;29868;47.360;18.984;2024-03-08T20:49:23;57.80;;;29.67;;
43817;SDS011;29868;47.360;18.984;2024-03-08T20:51:48;57.00;;;28.17;;
43817;SDS011;29868;47.360;18.984;2024-03-08T20:54:14;56.25;;;29.30;;
43817;SDS011;29868;47.360;18.984;2024-03-08T20:56:41;53.05;;;27.25;;
43817;SDS011;29868;47.360;18.984;2024-03-08T20:59:07;53.30;;;27.35;;
43817;SDS011;29868;47.360;18.984;2024-03-08T21:01:32;61.80;;;30.40;;
43817;SDS011;29868;47.360;18.984;2024-03-08T21:03:58;68.18;;;35.30;;
43817;SDS011;29868;47.360;18.984;2024-03-08T21:06:24;67.85;;;32.83;;
43817;SDS011;29868;47.360;18.984;2024-03-08T21:08:49;57.28;;;30.08;;
43817;SDS011;29868;47.360;18.984;2024-03-08T21:11:15;55.67;;;29.23;;
43817;SDS011;29868;47.360;18.984;2024-03-08T21:13:41;56.28;;;28.55;;
43817;SDS011;29868;47.360;18.984;2024-03-08T21:16:06;63.65;;;29.83;;
43817;SDS011;29868;47.360;18.984;2024-03-08T21:18:32;55.88;;;29.23;;
43817;SDS011;29868;47.360;18.984;2024-03-08T21:20:58;56.55;;;28.08;;
43817;SDS011;29868;47.360;18.984;2024-03-08T21:23:23;55.90;;;28.60;;
43817;SDS011;29868;47.360;18.984;2024-03-08T21:25:50;54.70;;;28.52;;
43817;SDS011;29868;47.360;18.984;2024-03-08T21:28:15;60.08;;;27.98;;
43817;SDS011;29868;47.360;18.984;2024-03-08T21:30:44;63.88;;;30.52;;
43817;SDS011;29868;47.360;18.984;2024-03-08T21:33:10;61.65;;;29.65;;
43817;SDS011;29868;47.360;18.984;2024-03-08T21:35:39;56.63;;;28.63;;
43817;SDS011;29868;47.360;18.984;2024-03-08T21:38:05;64.13;;;30.33;;
43817;SDS011;29868;47.360;18.984;2024-03-08T21:40:33;55.67;;;28.88;;
43817;SDS011;29868;47.360;18.984;2024-03-08T21:43:00;63.30;;;30.75;;
43817;SDS011;29868;47.360;18.984;2024-03-08T21:45:28;57.55;;;28.58;;
43817;SDS011;29868;47.360;18.984;2024-03-08T21:47:57;59.15;;;29.80;;
43817;SDS011;29868;47.360;18.984;2024-03-08T21:50:27;60.35;;;29.90;;
43817;SDS011;29868;47.360;18.984;2024-03-08T21:52:54;62.03;;;29.67;;
43817;SDS011;29868;47.360;18.984;2024-03-08T21:55:21;61.85;;;29.48;;
43817;SDS011;29868;47.360;18.984;2024-03-08T21:57:47;63.20;;;29.50;;
43817;SDS011;29868;47.360;18.984;2024-03-08T22:00:17;60.67;;;28.15;;
43817;SDS011;29868;47.360;18.984;2024-03-08T22:02:44;58.30;;;28.77;;
43817;SDS011;29868;47.360;18.984;2024-03-08T22:05:11;57.35;;;29.55;;
43817;SDS011;29868;47.360;18.984;2024-03-08T22:07:44;62.58;;;31.17;;
43817;SDS011;29868;47.360;18.984;2024-03-08T22:10:09;60.95;;;29.20;;
43817;SDS011;29868;47.360;18.984;2024-03-08T22:12:35;56.65;;;28.60;;